Time;durP1;ratioP1;P1;durP2;ratioP2;P2;SDS_P1;SDS_P2;PMS_P1;PMS_P2;Temp;Humidity;BMP_temperature;BMP_pressure;BME280_temperature;BME280_humidity;BME280_pressure;Samples;Min_cycle;Max_cycle;Signal;HPM_P1;HPM_P2
2021/07/08 00:01:59;;;;;;;0.00;0.00;;;22.30;80.60;;;;;;4208689;28;20082;-52
2021/07/08 00:04:21;;;;;;;0.10;0.10;;;22.30;80.50;;;;;;4208411;28;20520;-53
2021/07/08 00:06:43;;;;;;;0.43;0.43;;;22.20;80.50;;;;;;4208074;28;20055;-48
2021/07/08 00:09:06;;;;;;;0.40;0.40;;;22.20;80.50;;;;;;4208540;28;20059;-54
2021/07/08 00:11:28;;;;;;;0.70;0.55;;;22.20;80.60;;;;;;4207225;28;20048;-51
2021/07/08 00:13:52;;;;;;;0.00;0.00;;;22.20;80.60;;;;;;4208724;28;20062;-52
2021/07/08 00:16:14;;;;;;;0.00;0.00;;;22.20;80.60;;;;;;4208119;28;20134;-51
2021/07/08 00:18:36;;;;;;;0.55;0.55;;;22.20;80.60;;;;;;4191668;28;20047;-51
2021/07/08 00:20:59;;;;;;;0.00;0.00;;;22.20;80.60;;;;;;4191774;28;20047;-47
2021/07/08 00:23:22;;;;;;;0.08;0.08;;;22.20;80.60;;;;;;4179132;28;20049;-50
2021/07/08 00:25:46;;;;;;;0.00;0.00;;;22.20;80.60;;;;;;4175058;28;20103;-52
2021/07/08 00:28:12;;;;;;;0.00;0.00;;;22.20;80.60;;;;;;4174839;28;20083;-52
2021/07/08 00:30:35;;;;;;;0.00;0.00;;;22.20;80.60;;;;;;4189807;28;20048;-51
2021/07/08 00:32:57;;;;;;;0.00;0.00;;;22.10;81.30;;;;;;4176381;28;20563;-51
2021/07/08 00:35:20;;;;;;;0.00;0.00;;;22.20;80.50;;;;;;4177911;28;20044;-53
2021/07/08 00:37:42;;;;;;;0.00;0.00;;;22.10;80.40;;;;;;4205341;27;20040;-51
2021/07/08 00:40:05;;;;;;;0.00;0.00;;;22.10;80.40;;;;;;4207848;28;20097;-52
2021/07/08 00:42:27;;;;;;;0.00;0.00;;;22.10;80.40;;;;;;4207878;28;20058;-52
2021/07/08 00:44:49;;;;;;;0.05;0.05;;;22.10;80.40;;;;;;4207872;28;20422;-50
2021/07/08 00:47:13;;;;;;;0.05;0.05;;;22.10;80.30;;;;;;4208019;28;20058;-51
2021/07/08 00:49:35;;;;;;;0.00;0.00;;;22.10;80.30;;;;;;4207965;28;20440;-51
2021/07/08 00:51:57;;;;;;;0.00;0.00;;;22.10;80.40;;;;;;4207824;28;20048;-54
2021/07/08 00:54:19;;;;;;;0.10;0.10;;;22.10;80.50;;;;;;4208306;28;20052;-49
2021/07/08 00:56:41;;;;;;;0.10;0.10;;;22.10;80.60;;;;;;4207818;28;20044;-50
2021/07/08 00:59:05;;;;;;;0.00;0.00;;;22.10;80.60;;;;;;4207784;28;20054;-51
2021/07/08 01:01:27;;;;;;;0.10;0.10;;;22.10;80.60;;;;;;4208070;28;20772;-52
2021/07/08 01:03:51;;;;;;;0.03;0.03;;;22.00;80.50;;;;;;4206369;28;20036;-48
2021/07/08 01:06:13;;;;;;;0.17;0.17;;;22.00;80.50;;;;;;4207689;28;20052;-54
2021/07/08 01:08:35;;;;;;;0.17;0.17;;;22.00;80.70;;;;;;4207955;28;20050;-54
2021/07/08 01:10:57;;;;;;;0.15;0.15;;;22.00;80.70;;;;;;4208012;28;20131;-54
2021/07/08 01:13:21;;;;;;;0.00;0.00;;;22.00;80.70;;;;;;4207827;28;20105;-53
2021/07/08 01:15:44;;;;;;;0.00;0.00;;;22.00;80.70;;;;;;4207361;28;20097;-55
2021/07/08 01:18:06;;;;;;;0.03;0.03;;;22.00;80.70;;;;;;4207805;28;20059;-50
2021/07/08 01:20:32;;;;;;;0.13;0.13;;;22.00;80.70;;;;;;4207274;28;20498;-49
2021/07/08 01:22:58;;;;;;;0.00;0.00;;;22.00;80.80;;;;;;4205783;28;20043;-51
2021/07/08 01:25:20;;;;;;;0.00;0.00;;;22.00;81.70;;;;;;4206363;28;20493;-51
2021/07/08 01:27:43;;;;;;;0.00;0.00;;;21.90;80.80;;;;;;4207817;28;20051;-49
2021/07/08 01:30:07;;;;;;;0.30;0.30;;;22.00;80.90;;;;;;4207636;28;20143;-51
2021/07/08 01:32:29;;;;;;;0.10;0.10;;;21.90;80.90;;;;;;4207467;28;20056;-51
2021/07/08 01:34:51;;;;;;;0.22;0.22;;;21.90;80.90;;;;;;4206200;28;20444;-53
2021/07/08 01:37:16;;;;;;;0.00;0.00;;;21.90;80.90;;;;;;4191073;28;20048;-50
2021/07/08 01:39:39;;;;;;;0.00;0.00;;;21.90;81.00;;;;;;4191007;28;20033;-52
2021/07/08 01:42:01;;;;;;;0.10;0.10;;;21.90;81.00;;;;;;4190830;28;20110;-52
2021/07/08 01:44:23;;;;;;;0.00;0.00;;;21.90;81.00;;;;;;4195074;28;20044;-53
2021/07/08 01:46:45;;;;;;;0.00;0.00;;;21.90;80.90;;;;;;4207667;28;20143;-54
2021/07/08 01:49:07;;;;;;;0.32;0.32;;;21.80;80.90;;;;;;4207181;28;20048;-52
2021/07/08 01:51:32;;;;;;;0.52;0.52;;;21.80;80.90;;;;;;4207231;28;20107;-50
2021/07/08 01:53:54;;;;;;;0.20;0.20;;;21.80;81.00;;;;;;4209345;28;20048;-52
2021/07/08 01:56:18;;;;;;;0.17;0.17;;;21.80;81.00;;;;;;4210612;28;20095;-50
2021/07/08 01:58:40;;;;;;;0.03;0.03;;;21.80;81.10;;;;;;4210442;28;20044;-50
2021/07/08 02:01:02;;;;;;;0.00;0.00;;;21.80;82.10;;;;;;4210389;28;20048;-51
2021/07/08 02:03:24;;;;;;;0.08;0.08;;;21.80;82.20;;;;;;4210419;28;20151;-51
2021/07/08 02:05:47;;;;;;;0.00;0.00;;;21.80;81.50;;;;;;4210445;28;20126;-48
2021/07/08 02:08:09;;;;;;;0.10;0.10;;;21.80;81.80;;;;;;4210465;28;22341;-50
2021/07/08 02:10:31;;;;;;;0.00;0.00;;;21.80;81.90;;;;;;4210549;28;20052;-52
2021/07/08 02:12:55;;;;;;;0.05;0.05;;;21.80;81.80;;;;;;4210286;28;20067;-50
2021/07/08 02:15:17;;;;;;;0.00;0.00;;;21.80;81.70;;;;;;4209944;28;20068;-52
2021/07/08 02:17:40;;;;;;;0.00;0.00;;;21.80;81.70;;;;;;4209951;28;20410;-50
2021/07/08 02:20:04;;;;;;;0.00;0.00;;;21.80;81.60;;;;;;4209824;28;20131;-54
2021/07/08 02:22:27;;;;;;;0.00;0.00;;;21.80;81.60;;;;;;4210657;28;20630;-51
2021/07/08 02:24:49;;;;;;;0.00;0.00;;;21.80;81.60;;;;;;4210334;28;20051;-49
2021/07/08 02:27:11;;;;;;;0.00;0.00;;;21.80;81.50;;;;;;4210206;28;20044;-50
2021/07/08 02:29:34;;;;;;;0.00;0.00;;;21.80;81.50;;;;;;4210281;28;20052;-54
2021/07/08 02:31:57;;;;;;;0.00;0.00;;;21.80;81.50;;;;;;4210162;28;20137;-50
2021/07/08 02:34:19;;;;;;;0.47;0.47;;;21.80;81.40;;;;;;4192910;28;20494;-52
2021/07/08 02:36:41;;;;;;;0.08;0.08;;;21.80;82.30;;;;;;4176592;28;20080;-53
2021/07/08 02:39:05;;;;;;;0.00;0.00;;;21.80;81.40;;;;;;4176674;28;20553;-54
2021/07/08 02:41:28;;;;;;;0.22;0.22;;;21.80;81.50;;;;;;4189381;28;20049;-54
2021/07/08 02:43:51;;;;;;;0.05;0.05;;;21.80;81.40;;;;;;4176867;28;20049;-51
2021/07/08 02:46:14;;;;;;;0.00;0.00;;;21.70;81.30;;;;;;4176244;28;20052;-51
2021/07/08 02:48:36;;;;;;;0.15;0.15;;;21.70;81.20;;;;;;4188916;28;20059;-53
2021/07/08 02:50:59;;;;;;;0.00;0.00;;;21.70;81.20;;;;;;4192282;28;20055;-51
2021/07/08 02:53:21;;;;;;;0.10;0.10;;;21.70;81.10;;;;;;4207932;28;20060;-50
2021/07/08 02:55:44;;;;;;;0.20;0.20;;;21.70;81.10;;;;;;4193100;28;20489;-52
2021/07/08 02:58:05;;;;;;;0.52;0.52;;;21.70;81.10;;;;;;4192647;28;20109;-52
2021/07/08 03:00:29;;;;;;;0.30;0.30;;;21.70;81.00;;;;;;4192737;28;20048;-52
2021/07/08 03:02:53;;;;;;;0.00;0.00;;;21.70;81.00;;;;;;4192823;28;20423;-49
2021/07/08 03:05:17;;;;;;;0.20;0.20;;;21.70;81.00;;;;;;4209172;28;20051;-53
2021/07/08 03:07:40;;;;;;;0.65;0.35;;;21.70;81.10;;;;;;4209875;28;20517;-54
2021/07/08 03:10:03;;;;;;;0.00;0.00;;;21.70;81.10;;;;;;4209592;28;20105;-53
2021/07/08 03:12:25;;;;;;;0.00;0.00;;;21.60;81.00;;;;;;4209684;28;20075;-52
2021/07/08 03:14:47;;;;;;;0.28;0.28;;;21.60;81.00;;;;;;4193048;28;20048;-53
2021/07/08 03:17:10;;;;;;;0.52;0.52;;;21.60;80.90;;;;;;4199234;28;20094;-50
2021/07/08 03:19:33;;;;;;;0.00;0.00;;;21.60;81.00;;;;;;4209217;28;20648;-50
2021/07/08 03:21:55;;;;;;;0.10;0.10;;;21.70;81.00;;;;;;4209376;28;20047;-51
2021/07/08 03:24:18;;;;;;;0.55;0.55;;;21.60;80.90;;;;;;4209655;28;20732;-52
2021/07/08 03:26:40;;;;;;;0.10;0.10;;;21.60;80.90;;;;;;4209422;28;20054;-48
2021/07/08 03:29:02;;;;;;;0.00;0.00;;;21.60;80.90;;;;;;4209294;28;20554;-49
2021/07/08 03:31:25;;;;;;;0.00;0.00;;;21.60;80.90;;;;;;4209238;28;20410;-50
2021/07/08 03:33:47;;;;;;;0.68;0.35;;;21.60;80.90;;;;;;4208367;28;20048;-50
2021/07/08 03:36:11;;;;;;;0.00;0.00;;;21.60;80.90;;;;;;4199030;28;20498;-50
2021/07/08 03:38:33;;;;;;;0.00;0.00;;;21.60;80.90;;;;;;4192465;28;20041;-48
2021/07/08 03:40:55;;;;;;;0.00;0.00;;;21.60;80.90;;;;;;4192337;28;20040;-49
2021/07/08 03:43:17;;;;;;;0.20;0.20;;;21.60;80.80;;;;;;4192309;28;20402;-49
2021/07/08 03:45:39;;;;;;;0.10;0.10;;;21.60;80.90;;;;;;4192537;28;20063;-50
2021/07/08 03:48:01;;;;;;;0.00;0.00;;;21.60;80.90;;;;;;4192272;28;20067;-52
2021/07/08 03:50:24;;;;;;;0.10;0.10;;;21.60;80.90;;;;;;4188190;28;20048;-53
2021/07/08 03:52:48;;;;;;;0.00;0.00;;;21.60;80.90;;;;;;4197284;28;20047;-52
2021/07/08 03:55:13;;;;;;;0.05;0.05;;;21.50;80.90;;;;;;4208746;28;20479;-51
2021/07/08 03:57:35;;;;;;;0.00;0.00;;;21.60;80.90;;;;;;4208946;28;20383;-49
2021/07/08 03:59:58;;;;;;;0.00;0.00;;;21.60;80.90;;;;;;4208733;28;20225;-53
2021/07/08 04:02:20;;;;;;;0.60;0.60;;;21.50;80.90;;;;;;4208694;28;20414;-52
2021/07/08 04:04:42;;;;;;;0.00;0.00;;;21.60;81.00;;;;;;4208655;28;20048;-52
2021/07/08 04:07:04;;;;;;;1.95;1.00;;;21.50;81.80;;;;;;4207202;28;20044;-47
2021/07/08 04:09:28;;;;;;;0.80;0.60;;;21.50;81.00;;;;;;4208505;28;20066;-47
2021/07/08 04:11:50;;;;;;;0.00;0.00;;;21.50;81.60;;;;;;4208022;28;20048;-53
2021/07/08 04:14:12;;;;;;;0.00;0.00;;;21.50;81.00;;;;;;4208546;28;20134;-51
2021/07/08 04:16:35;;;;;;;0.28;0.28;;;21.50;81.00;;;;;;4207943;28;20417;-53
2021/07/08 04:18:57;;;;;;;0.00;0.00;;;21.50;81.10;;;;;;4208295;28;20059;-50
2021/07/08 04:21:19;;;;;;;0.00;0.00;;;21.50;81.20;;;;;;4208351;28;20044;-52
2021/07/08 04:23:41;;;;;;;0.00;0.00;;;21.50;81.30;;;;;;4208270;28;20043;-46
2021/07/08 04:26:04;;;;;;;0.00;0.00;;;21.50;81.10;;;;;;4208325;28;20056;-51
2021/07/08 04:28:27;;;;;;;0.00;0.00;;;21.50;81.10;;;;;;4208226;28;20040;-49
2021/07/08 04:30:48;;;;;;;0.10;0.10;;;21.50;81.90;;;;;;4208162;28;20050;-48
2021/07/08 04:33:11;;;;;;;0.10;0.10;;;21.50;81.00;;;;;;4206020;28;20083;-52
2021/07/08 04:35:36;;;;;;;1.65;0.32;;;21.50;81.00;;;;;;4208356;28;20130;-49
2021/07/08 04:37:59;;;;;;;0.22;0.22;;;21.50;80.90;;;;;;4208448;28;20387;-48
2021/07/08 04:40:21;;;;;;;0.00;0.00;;;21.50;81.00;;;;;;4208293;28;20070;-50
2021/07/08 04:42:45;;;;;;;0.47;0.47;;;21.50;80.90;;;;;;4208135;28;20051;-50
2021/07/08 04:45:10;;;;;;;0.28;0.28;;;21.50;80.90;;;;;;4208214;28;20109;-51
2021/07/08 04:47:32;;;;;;;0.10;0.10;;;21.50;80.70;;;;;;4207704;28;24351;-50
2021/07/08 04:49:57;;;;;;;0.35;0.35;;;21.60;80.60;;;;;;4207527;28;20517;-52
2021/07/08 04:52:19;;;;;;;0.10;0.10;;;21.60;80.60;;;;;;4207861;28;20044;-47
2021/07/08 04:54:41;;;;;;;0.00;0.00;;;21.60;80.50;;;;;;4206515;28;20414;-52
2021/07/08 04:57:04;;;;;;;0.00;0.00;;;21.60;80.60;;;;;;4207832;28;20051;-52
2021/07/08 04:59:27;;;;;;;0.32;0.20;;;21.60;80.50;;;;;;4208139;28;20054;-52
2021/07/08 05:01:49;;;;;;;0.00;0.00;;;21.60;80.50;;;;;;4206622;28;20101;-57
2021/07/08 05:04:11;;;;;;;0.73;0.43;;;21.60;80.60;;;;;;4206228;27;20482;-52
2021/07/08 05:06:34;;;;;;;0.00;0.00;;;21.60;80.50;;;;;;4191236;28;20771;-49
2021/07/08 05:08:56;;;;;;;0.22;0.22;;;21.60;80.50;;;;;;4206119;28;20116;-49
2021/07/08 05:11:18;;;;;;;0.00;0.00;;;21.60;80.50;;;;;;4207320;28;20565;-53
2021/07/08 05:13:40;;;;;;;0.35;0.35;;;21.70;80.50;;;;;;4207982;28;20134;-54
2021/07/08 05:16:04;;;;;;;0.00;0.00;;;21.70;80.40;;;;;;4191093;28;20532;-54
2021/07/08 05:18:26;;;;;;;0.10;0.10;;;21.70;80.50;;;;;;4190544;28;20110;-53
2021/07/08 05:20:50;;;;;;;0.20;0.20;;;21.80;80.50;;;;;;4191373;28;20056;-50
2021/07/08 05:23:16;;;;;;;0.00;0.00;;;21.90;79.70;;;;;;4191003;28;20048;-49
2021/07/08 05:25:38;;;;;;;0.75;0.43;;;22.10;79.00;;;;;;4191034;28;20061;-48
2021/07/08 05:28:00;;;;;;;0.10;0.10;;;22.30;78.30;;;;;;4192724;28;20048;-48
2021/07/08 05:30:23;;;;;;;0.00;0.00;;;22.40;77.60;;;;;;4194466;28;20049;-52
2021/07/08 05:32:46;;;;;;;1.75;0.85;;;22.50;77.40;;;;;;4177763;28;20059;-52
2021/07/08 05:35:10;;;;;;;0.00;0.00;;;22.60;77.10;;;;;;4177455;28;20491;-50
2021/07/08 05:37:32;;;;;;;0.20;0.20;;;22.70;76.40;;;;;;4177393;28;20053;-49
2021/07/08 05:39:54;;;;;;;3.40;1.55;;;22.70;76.20;;;;;;4178004;28;20407;-50
2021/07/08 05:42:16;;;;;;;0.20;0.20;;;22.70;76.30;;;;;;4177915;28;20419;-49
2021/07/08 05:44:39;;;;;;;0.20;0.20;;;22.70;76.40;;;;;;4180957;28;20041;-50
2021/07/08 05:47:01;;;;;;;0.40;0.40;;;22.70;76.30;;;;;;4208838;28;20044;-47
2021/07/08 05:49:40;;;;;;;0.10;0.10;;;22.70;76.50;;;;;;4210593;28;20048;-48
2021/07/08 05:52:02;;;;;;;0.10;0.10;;;22.70;76.70;;;;;;4210862;28;20059;-47
2021/07/08 05:54:25;;;;;;;0.30;0.30;;;22.60;76.70;;;;;;4209491;28;20047;-48
2021/07/08 05:56:47;;;;;;;0.10;0.10;;;22.60;76.90;;;;;;4210689;28;20040;-48
2021/07/08 05:59:09;;;;;;;0.00;0.00;;;22.60;77.20;;;;;;4210681;28;20051;-48
2021/07/08 06:01:32;;;;;;;0.75;0.75;;;22.50;77.30;;;;;;4193778;28;20040;-49
2021/07/08 06:03:54;;;;;;;0.00;0.00;;;22.50;77.50;;;;;;4208168;27;20070;-51
2021/07/08 06:06:18;;;;;;;0.00;0.00;;;22.50;77.60;;;;;;4210681;28;20135;-47
2021/07/08 06:08:40;;;;;;;0.00;0.00;;;22.40;77.50;;;;;;4210729;28;20410;-48
2021/07/08 06:11:02;;;;;;;0.10;0.10;;;22.40;78.40;;;;;;4209384;28;20162;-46
2021/07/08 06:13:24;;;;;;;0.47;0.47;;;22.40;77.90;;;;;;4210052;28;20074;-49
2021/07/08 06:15:46;;;;;;;0.32;0.32;;;22.40;78.10;;;;;;4210138;28;20048;-50
2021/07/08 06:18:08;;;;;;;0.00;0.00;;;22.40;78.30;;;;;;4210191;28;20051;-52
2021/07/08 06:20:31;;;;;;;0.00;0.00;;;22.40;78.40;;;;;;4210271;28;20056;-54
2021/07/08 06:22:54;;;;;;;1.95;0.90;;;22.40;78.30;;;;;;4210411;28;20059;-51
2021/07/08 06:25:17;;;;;;;0.00;0.00;;;22.40;78.40;;;;;;4210496;28;20056;-49
2021/07/08 06:27:39;;;;;;;0.10;0.10;;;22.40;78.30;;;;;;4210334;28;20044;-46
2021/07/08 06:30:01;;;;;;;0.00;0.00;;;22.40;78.20;;;;;;4209506;28;20511;-50
2021/07/08 06:32:23;;;;;;;0.15;0.15;;;22.50;78.20;;;;;;4210337;28;20071;-49
2021/07/08 06:34:46;;;;;;;0.47;0.45;;;22.50;78.30;;;;;;4210111;28;20135;-50
2021/07/08 06:37:09;;;;;;;0.00;0.00;;;22.50;78.50;;;;;;4210225;28;20105;-51
2021/07/08 06:39:32;;;;;;;0.20;0.20;;;22.50;78.40;;;;;;4207739;28;20055;-53
2021/07/08 06:41:54;;;;;;;0.75;0.75;;;22.50;78.20;;;;;;4209630;28;20063;-50
2021/07/08 06:44:17;;;;;;;0.10;0.10;;;22.60;78.10;;;;;;4209840;28;20097;-51
2021/07/08 06:46:39;;;;;;;0.15;0.15;;;22.60;77.80;;;;;;4210465;28;20076;-52
2021/07/08 06:49:01;;;;;;;0.98;0.98;;;22.70;77.50;;;;;;4209491;28;20403;-51
2021/07/08 06:51:24;;;;;;;0.00;0.00;;;22.80;77.40;;;;;;4210148;28;20044;-52
2021/07/08 06:53:48;;;;;;;0.00;0.00;;;22.90;77.00;;;;;;4193392;28;20045;-48
2021/07/08 06:56:11;;;;;;;0.10;0.10;;;22.90;76.70;;;;;;4191678;28;20140;-51
2021/07/08 06:58:36;;;;;;;0.00;0.00;;;23.00;76.70;;;;;;4193095;28;20135;-52
2021/07/08 07:00:57;;;;;;;0.10;0.10;;;23.00;76.50;;;;;;4193407;28;20048;-53
2021/07/08 07:03:22;;;;;;;0.10;0.10;;;23.10;76.20;;;;;;4192714;28;20107;-50
2021/07/08 07:05:44;;;;;;;0.90;0.90;;;23.20;75.90;;;;;;4192628;28;20056;-53
2021/07/08 07:08:07;;;;;;;0.20;0.20;;;23.30;75.50;;;;;;4193039;28;20076;-48
2021/07/08 07:10:29;;;;;;;0.50;0.45;;;23.30;75.50;;;;;;4192991;28;20055;-48
2021/07/08 07:12:54;;;;;;;0.45;0.45;;;23.30;75.40;;;;;;4192980;28;20056;-51
2021/07/08 07:15:17;;;;;;;0.25;0.25;;;23.30;75.80;;;;;;4193301;28;20430;-52
2021/07/08 07:17:40;;;;;;;0.13;0.13;;;23.30;75.40;;;;;;4192876;28;20048;-48
2021/07/08 07:20:02;;;;;;;1.08;0.30;;;23.30;75.10;;;;;;4192780;28;20418;-51
2021/07/08 07:22:24;;;;;;;1.38;1.27;;;23.40;74.90;;;;;;4193029;28;20415;-51
2021/07/08 07:24:47;;;;;;;0.10;0.10;;;23.40;74.80;;;;;;4192583;28;20052;-48
2021/07/08 07:27:09;;;;;;;0.20;0.20;;;23.40;74.60;;;;;;4192500;28;20052;-50
2021/07/08 07:29:33;;;;;;;0.25;0.25;;;23.50;74.50;;;;;;4192829;28;20040;-51
2021/07/08 07:31:55;;;;;;;0.55;0.55;;;23.50;74.50;;;;;;4192799;28;20048;-51
2021/07/08 07:34:17;;;;;;;0.57;0.40;;;23.50;74.30;;;;;;4191023;28;20052;-49
2021/07/08 07:36:39;;;;;;;0.20;0.20;;;23.50;75.20;;;;;;4192616;28;20717;-50
2021/07/08 07:39:01;;;;;;;0.30;0.30;;;23.50;74.30;;;;;;4207844;27;20055;-51
2021/07/08 07:41:23;;;;;;;0.35;0.28;;;23.60;74.40;;;;;;4209079;27;20048;-48
2021/07/08 07:43:47;;;;;;;0.10;0.10;;;23.50;74.30;;;;;;4208375;28;20409;-49
2021/07/08 07:46:11;;;;;;;1.98;1.45;;;23.60;74.40;;;;;;4208869;28;20158;-52
2021/07/08 07:48:34;;;;;;;0.10;0.10;;;23.60;74.40;;;;;;4208881;28;20052;-51
2021/07/08 07:50:57;;;;;;;1.00;0.98;;;23.60;74.40;;;;;;4191150;28;20422;-53
2021/07/08 07:53:19;;;;;;;0.50;0.50;;;23.60;74.40;;;;;;4209181;28;20082;-49
2021/07/08 07:55:42;;;;;;;0.43;0.43;;;23.60;74.40;;;;;;4208793;28;20068;-52
2021/07/08 07:58:05;;;;;;;0.20;0.20;;;23.60;74.50;;;;;;4209122;28;20048;-49
2021/07/08 08:00:29;;;;;;;0.22;0.22;;;23.60;74.40;;;;;;4208828;28;20058;-52
2021/07/08 08:02:53;;;;;;;0.20;0.20;;;23.60;74.40;;;;;;4208581;28;20052;-49
2021/07/08 08:05:32;;;;;;;0.35;0.35;;;23.60;74.40;;;;;;4207563;28;20178;-49
2021/07/08 08:10:37;;;;;;;0.00;0.00;;;23.60;74.40;;;;;;4191767;28;20145;-48
2021/07/08 08:13:00;;;;;;;1.45;1.13;;;23.60;74.40;;;;;;4206697;28;20317;-51
2021/07/08 08:15:22;;;;;;;0.10;0.10;;;23.70;74.50;;;;;;4192017;28;20495;-49
2021/07/08 08:17:44;;;;;;;0.10;0.10;;;23.60;75.30;;;;;;4190034;28;20048;-51
2021/07/08 08:20:10;;;;;;;0.00;0.00;;;23.70;74.40;;;;;;4191660;28;20060;-49
2021/07/08 08:22:32;;;;;;;0.00;0.00;;;23.60;74.30;;;;;;4191899;28;20048;-49
2021/07/08 08:24:53;;;;;;;0.47;0.47;;;23.70;74.30;;;;;;4191809;28;20076;-52
2021/07/08 08:27:16;;;;;;;1.55;0.52;;;23.70;74.30;;;;;;4191718;28;20045;-53
2021/07/08 08:29:40;;;;;;;0.10;0.10;;;23.70;74.30;;;;;;4191847;28;20041;-50
2021/07/08 08:32:02;;;;;;;0.10;0.10;;;23.70;74.20;;;;;;4191904;28;20075;-51
2021/07/08 08:34:25;;;;;;;0.00;0.00;;;23.70;74.20;;;;;;4175295;28;20137;-52
2021/07/08 08:36:48;;;;;;;0.43;0.35;;;23.70;74.10;;;;;;4173870;28;20447;-49
2021/07/08 08:39:10;;;;;;;0.90;0.43;;;23.70;74.00;;;;;;4175153;28;20052;-53
2021/07/08 08:41:33;;;;;;;0.28;0.28;;;23.70;74.10;;;;;;4175160;28;20443;-52
2021/07/08 08:43:56;;;;;;;0.13;0.13;;;23.80;74.10;;;;;;4191261;28;20139;-54
2021/07/08 08:46:18;;;;;;;0.30;0.30;;;23.80;74.00;;;;;;4191773;28;20576;-52
2021/07/08 08:48:40;;;;;;;0.25;0.25;;;23.80;74.00;;;;;;4191199;28;20105;-52
2021/07/08 08:51:02;;;;;;;0.00;0.00;;;23.80;74.00;;;;;;4191659;28;20464;-52
2021/07/08 08:53:25;;;;;;;0.10;0.10;;;23.80;73.90;;;;;;4191167;28;20127;-54
2021/07/08 08:55:50;;;;;;;1.20;0.88;;;23.80;73.80;;;;;;4191158;28;20106;-53
2021/07/08 08:58:13;;;;;;;0.00;0.00;;;23.80;73.90;;;;;;4190717;28;20059;-51
2021/07/08 09:00:45;;;;;;;0.00;0.00;;;23.80;74.00;;;;;;4191551;28;20075;-49
2021/07/08 09:03:10;;;;;;;0.82;0.45;;;23.80;74.00;;;;;;4190438;28;20048;-51
2021/07/08 09:05:33;;;;;;;0.20;0.20;;;23.80;73.80;;;;;;4190831;28;20485;-52
2021/07/08 09:08:10;;;;;;;0.65;0.65;;;23.80;73.80;;;;;;4188371;28;20048;-51
2021/07/08 09:10:33;;;;;;;0.10;0.10;;;23.90;73.70;;;;;;4190928;27;20512;-51
2021/07/08 09:12:59;;;;;;;0.00;0.00;;;23.90;73.50;;;;;;4190890;27;20064;-50
2021/07/08 09:15:22;;;;;;;0.20;0.20;;;23.90;73.50;;;;;;4191035;27;20124;-47
2021/07/08 09:17:46;;;;;;;0.00;0.00;;;23.90;73.20;;;;;;4190827;27;20056;-52
2021/07/08 09:20:11;;;;;;;0.20;0.20;;;23.90;73.10;;;;;;4207882;27;20048;-49
2021/07/08 09:22:34;;;;;;;0.40;0.40;;;24.00;73.00;;;;;;4234936;28;20047;-50
2021/07/08 09:24:56;;;;;;;0.00;0.00;;;24.10;72.80;;;;;;4208133;28;20056;-52
2021/07/08 09:27:24;;;;;;;0.00;0.00;;;24.10;72.30;;;;;;4207599;28;20066;-47
2021/07/08 09:29:49;;;;;;;0.00;0.00;;;24.10;71.80;;;;;;4207179;28;20551;-54
2021/07/08 09:32:13;;;;;;;0.13;0.13;;;24.10;71.50;;;;;;4207609;28;20413;-50
2021/07/08 09:34:37;;;;;;;0.38;0.08;;;24.20;71.50;;;;;;4207339;28;20051;-52
2021/07/08 09:37:18;;;;;;;0.40;0.40;;;24.20;71.20;;;;;;4207575;28;20052;-50
2021/07/08 09:39:42;;;;;;;0.00;0.00;;;24.30;71.00;;;;;;4207564;28;20059;-48
2021/07/08 09:42:05;;;;;;;0.28;0.28;;;24.30;71.00;;;;;;4208013;28;20048;-51
2021/07/08 09:44:29;;;;;;;0.10;0.10;;;24.30;70.80;;;;;;4207587;28;20044;-54
2021/07/08 09:46:53;;;;;;;0.10;0.10;;;24.30;70.70;;;;;;4207038;28;20417;-48
2021/07/08 09:49:15;;;;;;;4.85;1.77;;;24.30;70.70;;;;;;4207402;28;20391;-49
2021/07/08 09:51:37;;;;;;;0.03;0.03;;;24.30;70.60;;;;;;4207645;28;20068;-48
2021/07/08 09:54:06;;;;;;;0.00;0.00;;;24.30;70.40;;;;;;4207407;28;20138;-49
2021/07/08 09:56:49;;;;;;;0.08;0.08;;;24.40;70.30;;;;;;4207218;28;20109;-53
2021/07/08 09:59:11;;;;;;;0.00;0.00;;;24.40;70.20;;;;;;4207199;28;20107;-49
2021/07/08 10:01:35;;;;;;;0.00;0.00;;;24.40;70.20;;;;;;4207081;28;20387;-52
2021/07/08 10:03:57;;;;;;;0.52;0.52;;;24.40;70.00;;;;;;4205982;28;20048;-50
2021/07/08 10:06:20;;;;;;;0.00;0.00;;;24.30;70.10;;;;;;4206919;28;20077;-50
2021/07/08 10:08:43;;;;;;;0.13;0.13;;;24.30;70.10;;;;;;4205489;28;20056;-51
2021/07/08 10:11:05;;;;;;;0.00;0.00;;;24.30;70.20;;;;;;4204423;28;20117;-50
2021/07/08 10:13:29;;;;;;;0.22;0.22;;;24.30;70.30;;;;;;4206613;28;20040;-47
2021/07/08 10:15:52;;;;;;;0.15;0.15;;;24.30;70.30;;;;;;4210192;28;20127;-46
2021/07/08 10:18:17;;;;;;;0.20;0.20;;;24.30;70.30;;;;;;4207301;28;20135;-49
2021/07/08 10:20:41;;;;;;;0.00;0.00;;;24.30;70.40;;;;;;4191961;28;20087;-51
2021/07/08 10:23:03;;;;;;;0.65;0.43;;;24.20;70.60;;;;;;4193579;28;20055;-52
2021/07/08 10:25:25;;;;;;;0.10;0.10;;;24.20;71.10;;;;;;4195190;28;20049;-52
2021/07/08 10:27:48;;;;;;;0.20;0.20;;;24.20;71.40;;;;;;4205790;28;20148;-53
2021/07/08 10:30:11;;;;;;;0.35;0.35;;;24.10;71.70;;;;;;4210353;28;20478;-49
2021/07/08 10:32:34;;;;;;;0.40;0.40;;;24.20;71.80;;;;;;4209938;28;20139;-54
2021/07/08 10:34:58;;;;;;;1.55;1.45;;;24.10;71.70;;;;;;4209817;28;20044;-49
2021/07/08 10:37:31;;;;;;;0.43;0.43;;;24.10;71.60;;;;;;4208384;28;20044;-50
2021/07/08 10:40:06;;;;;;;6.32;2.47;;;24.20;71.50;;;;;;4209965;28;20499;-51
2021/07/08 10:42:42;;;;;;;0.17;0.17;;;24.20;71.30;;;;;;4210032;28;20138;-47
2021/07/08 10:45:04;;;;;;;1.45;0.40;;;24.30;71.10;;;;;;4209568;28;20048;-51
2021/07/08 10:47:33;;;;;;;0.00;0.00;;;24.30;70.90;;;;;;4209723;28;20070;-51
2021/07/08 10:49:55;;;;;;;0.08;0.08;;;24.30;70.70;;;;;;4209344;28;20048;-51
2021/07/08 10:52:42;;;;;;;0.45;0.45;;;24.40;70.50;;;;;;4210057;28;20048;-53
2021/07/08 10:55:05;;;;;;;0.00;0.00;;;24.40;70.40;;;;;;4191671;28;20048;-51
2021/07/08 10:57:37;;;;;;;0.17;0.17;;;24.40;70.30;;;;;;4176741;28;20056;-53
2021/07/08 10:59:59;;;;;;;0.00;0.00;;;24.40;70.30;;;;;;4181687;28;20106;-50
2021/07/08 11:02:46;;;;;;;0.13;0.13;;;24.40;70.20;;;;;;4206859;28;20818;-50
2021/07/08 11:05:09;;;;;;;0.90;0.90;;;24.40;70.20;;;;;;4209414;28;20106;-49
2021/07/08 11:07:45;;;;;;;0.20;0.20;;;24.30;70.20;;;;;;4209570;28;20555;-47
2021/07/08 11:10:08;;;;;;;0.10;0.10;;;24.30;70.30;;;;;;4209447;28;20048;-49
2021/07/08 11:12:31;;;;;;;0.75;0.55;;;24.30;70.40;;;;;;4209465;28;20135;-53
2021/07/08 11:14:53;;;;;;;0.17;0.17;;;24.30;70.50;;;;;;4209551;28;20074;-50
2021/07/08 11:17:20;;;;;;;0.40;0.40;;;24.30;70.70;;;;;;4208794;28;20075;-53
2021/07/08 11:19:47;;;;;;;0.05;0.05;;;24.20;70.70;;;;;;4192136;28;20052;-57
2021/07/08 11:22:13;;;;;;;0.70;0.50;;;24.20;70.80;;;;;;4206370;28;20128;-54
2021/07/08 11:24:47;;;;;;;0.20;0.20;;;24.20;70.90;;;;;;4208918;28;20499;-55
2021/07/08 11:27:10;;;;;;;0.00;0.00;;;24.20;71.00;;;;;;4209324;28;20099;-50
2021/07/08 11:29:34;;;;;;;0.17;0.17;;;24.20;71.10;;;;;;4193034;28;20059;-52
2021/07/08 11:31:56;;;;;;;0.00;0.00;;;24.20;70.90;;;;;;4203955;28;20044;-55
2021/07/08 11:34:19;;;;;;;1.05;1.00;;;24.30;70.90;;;;;;4209220;28;20127;-53
2021/07/08 11:36:44;;;;;;;0.00;0.00;;;24.30;70.70;;;;;;4208934;28;20044;-53
2021/07/08 11:39:06;;;;;;;1.00;0.85;;;24.30;70.60;;;;;;4192232;28;20044;-55
2021/07/08 11:41:29;;;;;;;4.57;1.55;;;24.40;70.40;;;;;;4199231;28;20051;-54
2021/07/08 11:43:52;;;;;;;0.00;0.00;;;24.40;70.20;;;;;;4209044;28;20460;-55
2021/07/08 11:46:17;;;;;;;2.83;1.20;;;24.50;70.10;;;;;;4208851;28;20058;-52
2021/07/08 11:48:40;;;;;;;0.00;0.00;;;24.50;70.00;;;;;;4208973;28;20044;-54
2021/07/08 11:51:14;;;;;;;0.00;0.00;;;24.50;69.90;;;;;;4209015;28;20075;-52
2021/07/08 11:53:39;;;;;;;0.30;0.30;;;24.50;69.90;;;;;;4208241;28;20121;-53
2021/07/08 11:56:01;;;;;;;0.10;0.10;;;24.50;69.80;;;;;;4192130;28;20063;-54
2021/07/08 11:58:27;;;;;;;0.00;0.00;;;24.50;69.90;;;;;;4192062;28;20048;-53
2021/07/08 12:00:51;;;;;;;0.10;0.10;;;24.40;69.90;;;;;;4195985;28;20048;-50
2021/07/08 12:03:25;;;;;;;0.20;0.20;;;24.40;69.90;;;;;;4208602;28;20050;-55
2021/07/08 12:05:47;;;;;;;0.00;0.00;;;24.40;70.00;;;;;;4208202;28;20539;-54
2021/07/08 12:08:21;;;;;;;0.35;0.35;;;24.40;70.10;;;;;;4206934;28;20036;-52
2021/07/08 12:10:46;;;;;;;0.00;0.00;;;24.40;70.20;;;;;;4208367;28;20043;-49
2021/07/08 12:13:08;;;;;;;0.30;0.08;;;24.40;71.10;;;;;;4208297;28;20055;-50
2021/07/08 12:15:31;;;;;;;1.20;1.20;;;24.30;72.20;;;;;;4208436;28;20193;-55
2021/07/08 12:17:56;;;;;;;0.10;0.10;;;24.30;72.70;;;;;;4208230;28;20088;-56
2021/07/08 12:20:18;;;;;;;0.00;0.00;;;24.30;73.30;;;;;;4191721;28;20048;-53
2021/07/08 12:22:56;;;;;;;0.00;0.00;;;24.30;73.70;;;;;;4191201;28;20052;-52
2021/07/08 12:25:19;;;;;;;0.00;0.00;;;24.20;73.80;;;;;;4176958;28;20127;-55
2021/07/08 12:27:41;;;;;;;0.00;0.00;;;24.20;74.20;;;;;;4191503;28;20085;-56
2021/07/08 12:30:03;;;;;;;9.65;1.23;;;24.20;74.40;;;;;;4191083;28;20053;-56
2021/07/08 12:32:27;;;;;;;0.47;0.45;;;24.20;74.60;;;;;;4191786;28;20049;-55